Date,TemperatureHighF,TemperatureAvgF,TemperatureLowF,DewpointHighF,DewpointAvgF,DewpointLowF,HumidityHigh,HumidityAvg,HumidityLow,PressureMaxIn,PressureMinIn,WindSpeedMaxMPH,WindSpeedAvgMPH,GustSpeedMaxMPH,PrecipitationSumIn
2013-1-1,61,50,39,34,24,12,75,42,18,30.24,30.10,8,4,10,0.00
2013-1-2,66,56,46,46,23,11,77,31,14,30.15,30.05,13,4,18,0.00
2013-1-3,70,51,45,35,14,-100,55,30,12,30.17,30.06,9,-68,15,0.00
2013-1-4,66,51,40,40,25,10,64,39,11,30.26,30.17,9,3,11,0.00
2013-1-5,62,50,38,46,33,21,80,54,28,30.30,30.19,7,2,8,0.00
2013-1-6,55,48,42,49,43,40,92,82,64,30.20,30.03,11,3,18,0.04
2013-1-7,61,49,38,42,36,29,88,64,31,30.15,30.02,7,3,9,0.00
2013-1-8,69,55,45,50,38,28,82,55,31,30.11,30.03,9,3,12,0.00
2013-1-9,60,51,43,53,46,38,89,82,62,30.13,30.01,7,2,10,0.00
2013-1-10,57,51,40,48,36,20,89,59,23,30.13,29.93,14,5,18,0.00
2013-1-11,56,45,33,31,25,13,75,49,21,30.21,30.07,14,4,16,0.00
2013-1-12,56,44,34,30,25,16,69,50,22,30.18,30.10,7,3,13,0.00
2013-1-13,56,45,35,32,24,7,66,45,21,30.19,30.07,9,3,16,0.00
2013-1-14,56,46,40,31,8,2,55,22,12,30.36,30.16,16,5,18,0.00
2013-1-15,60,48,37,42,23,4,74,40,17,30.45,30.34,12,3,13,0.01
2013-1-16,73,54,39,41,29,24,64,42,17,30.36,30.15,12,3,16,0.00
2013-1-17,77,65,47,27,17,11,43,17,8,30.18,30.05,10,4,19,0.00
2013-1-18,76,66,58,22,15,12,18,14,10,30.14,30.05,9,3,13,0.00
2013-1-19,78,66,57,36,16,11,39,16,8,30.17,30.06,7,2,12,0.00
2013-1-20,79,63,49,32,17,8,37,19,7,30.14,30.00,6,2,14,0.00
2013-1-21,81,68,56,25,12,7,27,12,6,30.09,29.98,11,3,14,0.00
2013-1-22,79,62,52,40,22,11,49,23,8,30.08,29.99,11,3,14,0.00
2013-1-23,74,60,54,48,33,20,81,38,20,30.11,29.99,8,3,11,0.06
2013-1-24,63,58,53,56,53,48,92,85,72,30.17,30.08,8,2,15,0.61
2013-1-25,63,60,57,55,53,48,90,79,59,30.13,29.97,5,2,7,0.14
2013-1-26,65,58,54,60,54,49,94,87,71,29.99,29.90,7,2,11,0.12
2013-1-27,61,55,43,52,42,26,89,66,26,30.04,29.92,12,4,16,0.00
2013-1-28,60,49,38,39,33,25,77,56,29,30.19,30.04,12,4,16,0.00
2013-1-29,58,48,40,45,36,-100,82,67,45,30.23,30.14,9,-4,10,0.00
2013-1-30,64,51,40,47,41,35,84,69,43,30.34,30.22,9,2,13,0.00
2013-1-31,72,56,45,49,42,37,79,62,33,30.25,30.11,11,3,11,0.00
2013-2-1,73,57,49,52,44,37,89,63,31,30.17,30.11,16,3,22,0.00
2013-2-2,71,60,51,53,46,40,86,61,34,30.19,30.11,13,3,16,0.00
2013-2-3,67,57,49,53,49,45,90,74,52,30.15,30.02,8,3,10,0.00
2013-2-4,64,53,43,52,47,41,93,81,62,30.10,29.99,7,2,9,0.01
2013-2-5,56,52,47,50,48,44,89,84,78,30.10,30.00,6,2,8,0.00
2013-2-6,62,54,45,51,46,42,89,78,52,30.11,30.00,8,2,12,0.00
2013-2-7,60,51,41,48,43,36,89,77,62,30.14,29.98,8,3,14,0.00
2013-2-8,54,49,41,40,38,36,83,68,55,29.98,29.87,12,6,20,0.00
2013-2-9,59,47,36,43,36,30,86,69,35,30.10,29.94,8,3,13,0.00
2013-2-10,58,47,38,43,38,32,85,72,52,30.10,30.02,8,4,9,0.00
2013-2-11,65,49,38,44,36,16,86,65,17,30.24,30.07,10,4,15,0.00
2013-2-12,62,49,38,41,32,21,75,54,29,30.35,30.25,8,3,11,0.00
2013-2-13,63,50,39,47,38,30,82,65,32,30.27,30.14,9,3,12,0.00
2013-2-14,69,53,40,50,42,34,83,68,34,30.21,30.07,8,2,13,0.00
2013-2-15,81,55,50,40,-2,-100,70,16,11,30.19,30.11,13,-221,13,0.00
2013-2-16,77,65,47,41,26,18,55,25,11,30.15,29.97,9,2,10,0.00
2013-2-17,62,53,42,50,40,27,84,63,36,30.02,29.93,11,3,21,0.00
2013-2-18,60,54,48,48,46,43,88,75,57,30.06,29.94,12,4,16,0.00
2013-2-19,57,52,46,47,43,34,89,74,56,29.98,29.73,12,4,15,0.10
2013-2-20,63,52,42,40,30,22,66,44,23,29.99,29.73,13,6,17,0.00
2013-2-21,59,48,38,45,36,29,79,63,40,30.10,29.98,11,4,12,0.00
2013-2-22,62,51,41,46,37,30,83,61,36,30.19,30.10,10,4,14,0.00
2013-2-23,63,51,40,49,41,32,81,69,49,30.16,29.90,9,3,14,0.00
2013-2-24,67,55,46,39,23,9,76,33,10,30.20,30.01,12,5,18,0.00
2013-2-25,65,52,40,46,29,15,80,45,16,30.23,30.07,10,3,13,0.00
2013-2-26,67,52,37,46,36,30,75,57,26,30.13,30.00,9,2,12,0.00
2013-2-27,75,59,46,34,20,13,60,24,10,30.29,30.12,10,3,15,0.00
2013-2-28,74,59,46,46,30,20,64,37,14,30.33,30.24,10,4,12,0.00
2013-3-1,84,66,53,45,29,19,58,29,10,30.30,30.16,10,4,12,0.00
2013-3-2,79,28,55,50,-45,-100,64,13,19,30.20,30.08,8,-592,10,0.00
2013-3-3,66,38,52,52,-2,-100,85,49,50,30.12,29.99,11,-344,15,0.00
2013-3-4,63,54,47,50,47,43,90,78,60,30.10,30.00,10,3,11,0.00
2013-3-5,60,54,47,49,47,43,88,79,65,30.13,30.03,10,3,11,0.00
2013-3-6,57,52,47,48,46,42,87,78,58,30.15,30.01,10,3,12,0.00
2013-3-7,60,54,49,49,47,42,90,77,53,30.02,29.84,10,3,14,0.50
2013-3-8,58,52,45,47,44,39,94,75,56,30.02,29.79,12,5,15,0.29
2013-3-9,63,54,43,48,43,38,86,68,46,30.22,30.01,11,4,17,0.00
2013-3-10,72,56,44,49,40,25,85,59,18,30.28,30.17,10,4,20,0.00
2013-3-11,69,56,42,48,42,33,82,63,30,30.19,30.05,8,2,13,0.00
2013-3-12,68,56,44,52,46,39,87,69,43,30.08,30.03,8,2,12,0.00
2013-3-13,69,56,47,53,49,44,93,79,53,30.11,30.04,7,2,12,0.00
2013-3-14,64,55,48,53,50,47,95,84,63,30.11,30.02,8,2,15,0.01
2013-3-15,63,56,53,54,52,50,93,85,71,30.03,29.94,11,3,16,0.00
2013-3-16,60,54,50,52,50,47,95,88,70,29.99,29.89,8,2,15,0.00
2013-3-17,63,54,48,54,50,45,95,85,65,30.01,29.93,11,3,16,0.00
2013-3-18,61,54,46,51,48,44,91,80,65,30.08,29.98,7,2,12,0.00
2013-3-19,64,56,48,53,50,45,89,80,62,30.12,30.03,9,3,15,0.00
2013-3-20,67,58,53,54,50,48,89,76,54,30.10,29.96,8,2,15,0.00
2013-3-21,67,58,48,53,50,44,87,75,59,29.96,29.80,12,3,17,0.00
2013-3-22,70,58,46,49,44,39,88,64,32,29.90,29.78,9,2,15,0.00
2013-3-23,67,56,43,52,44,29,85,65,38,30.02,29.89,10,3,18,0.00
2013-3-24,68,57,45,51,47,41,88,71,44,30.02,29.90,9,2,14,0.00
2013-3-25,67,56,45,54,48,40,88,76,58,29.98,29.90,9,3,14,0.00
2013-3-26,64,56,47,53,49,45,91,80,63,29.97,29.91,9,3,19,0.01
2013-3-27,66,57,49,52,49,46,90,77,55,30.05,29.93,10,3,19,0.00
2013-3-28,65,56,52,53,51,49,90,83,64,30.07,30.02,9,3,16,0.00
2013-3-29,66,56,49,54,52,47,92,84,65,30.13,30.05,10,3,16,0.00
2013-3-30,66,58,54,54,52,51,91,81,63,30.14,30.06,12,3,17,0.00
2013-3-31,64,58,54,59,53,51,94,84,72,30.13,30.06,12,4,20,0.04
2013-4-1,64,57,53,54,52,49,92,81,67,30.18,30.07,8,4,17,0.00
2013-4-2,67,58,49,53,50,46,90,77,57,30.10,30.00,10,3,18,0.00
2013-4-3,65,51,52,55,35,-100,91,75,69,30.10,30.01,10,-110,16,0.00
2013-4-4,67,59,55,55,53,51,90,82,59,30.13,30.02,13,4,22,0.00
2013-4-5,68,60,55,55,53,50,85,77,60,30.11,29.98,12,3,21,0.00
2013-4-6,69,60,50,54,51,47,89,75,54,30.09,29.94,10,3,17,0.00
2013-4-7,73,61,50,55,51,46,88,71,42,29.97,29.77,11,4,21,0.00
2013-4-8,70,59,51,50,41,29,87,54,22,29.83,29.68,21,9,34,0.00
2013-4-9,69,58,45,47,41,27,75,56,22,30.00,29.83,14,4,24,0.00
2013-4-10,78,62,48,50,39,26,79,48,15,30.10,29.97,10,4,17,0.00
2013-4-11,67,57,47,51,47,39,83,71,51,29.98,29.78,10,3,18,0.00
2013-4-12,65,57,51,52,50,47,89,80,62,29.88,29.81,9,3,16,0.00
2013-4-13,60,56,53,53,51,50,91,86,77,29.92,29.85,8,3,14,0.00
2013-4-14,63,57,54,53,51,48,92,80,64,29.89,29.83,7,2,14,0.00
2013-4-15,63,57,51,51,48,42,85,72,57,29.91,29.84,9,5,17,0.00
2013-4-16,62,54,44,45,42,36,85,64,42,30.02,29.87,14,5,30,0.00
2013-4-17,67,57,44,45,40,24,81,56,20,30.13,30.02,13,4,25,0.00
2013-4-18,78,62,49,46,27,14,67,31,10,30.20,30.13,14,5,27,0.00
2013-4-19,78,62,48,51,37,24,82,44,14,30.17,29.97,9,4,17,0.00
2013-4-20,77,62,50,53,49,43,85,63,32,30.00,29.88,13,3,21,0.00
2013-4-21,72,61,50,56,52,46,89,73,48,30.00,29.93,10,4,17,0.00
2013-4-22,66,60,57,54,52,51,85,76,61,30.01,29.90,9,4,16,0.00
2013-4-23,68,60,56,53,51,49,85,71,56,29.97,29.88,9,4,18,0.00
2013-4-24,59,57,55,54,52,50,90,82,73,29.99,29.91,8,2,15,0.00
2013-4-25,70,61,53,52,49,44,86,67,42,30.13,29.96,10,3,17,0.00
2013-4-26,69,59,50,54,50,45,86,72,51,30.16,30.11,9,4,15,0.00
2013-4-27,68,59,50,55,52,47,92,77,57,30.14,30.00,8,3,17,0.00
2013-4-28,67,59,54,56,53,51,89,82,65,30.01,29.86,9,3,16,0.00
2013-4-29,65,59,54,56,54,50,91,83,71,29.91,29.80,9,3,17,0.00
2013-4-30,65,60,57,54,53,52,90,79,64,29.90,29.83,12,3,19,0.00
2013-5-1,71,64,58,55,53,52,86,70,52,30.09,29.90,10,4,16,0.00
2013-5-2,92,68,50,55,39,10,91,53,5,30.11,30.02,14,5,34,0.00
2013-5-3,91,71,56,56,38,20,82,38,8,30.03,29.76,9,4,16,0.00
2013-5-4,72,57,52,56,42,-100,89,68,56,29.83,29.74,19,-63,31,0.00
2013-5-5,64,60,57,54,51,49,79,71,58,29.93,29.82,16,8,24,0.00
2013-5-6,68,62,57,57,54,49,91,76,52,30.02,29.88,12,4,21,0.08
2013-5-7,70,63,58,55,52,46,83,69,44,30.06,29.98,11,4,20,0.00
2013-5-8,69,62,54,55,52,48,86,71,49,30.10,30.06,11,4,19,0.00
2013-5-9,70,61,52,55,52,47,84,73,53,30.09,30.02,9,4,16,0.00
2013-5-10,73,63,54,57,54,50,87,75,52,30.11,30.00,11,4,18,0.00
2013-5-11,75,63,56,60,57,54,92,80,59,30.07,30.01,9,3,17,0.00
2013-5-12,79,67,57,60,58,55,92,73,48,30.05,29.92,8,3,13,0.00
2013-5-13,75,66,58,59,57,54,87,74,55,29.99,29.91,7,3,13,0.00
2013-5-14,69,61,57,56,53,51,89,76,61,30.00,29.92,11,4,17,0.00
2013-5-15,69,61,52,56,52,48,86,73,57,30.05,29.95,10,3,14,0.00
2013-5-16,69,59,52,56,52,48,87,78,61,29.99,29.91,7,2,13,0.00
2013-5-17,70,62,54,56,52,49,86,72,53,29.99,29.91,10,3,18,0.00
2013-5-18,71,62,52,54,51,46,84,68,43,30.04,29.97,10,3,18,0.00
2013-5-19,73,62,51,57,52,46,86,71,52,29.99,29.86,9,3,17,0.00
2013-5-20,75,65,53,58,54,49,86,69,44,29.96,29.88,9,3,16,0.00
2013-5-21,73,64,56,60,56,50,88,75,61,29.94,29.83,10,4,21,0.00
2013-5-22,70,61,55,55,48,-100,81,66,49,29.85,29.78,10,-17,18,0.00
2013-5-23,69,60,53,52,48,45,80,66,43,29.94,29.82,10,4,18,0.00
2013-5-24,69,60,50,55,49,44,82,68,54,29.99,29.90,10,4,19,0.00
2013-5-25,69,60,50,54,50,45,82,70,57,30.03,29.96,13,4,21,0.00
2013-5-26,70,62,51,55,52,46,86,71,54,30.05,29.99,11,4,20,0.00
2013-5-27,73,63,53,55,53,48,86,71,51,30.01,29.84,9,3,15,0.00
2013-5-28,75,65,55,57,54,50,85,69,51,29.88,29.73,11,4,18,0.00
2013-5-29,74,65,56,57,54,51,84,68,48,29.82,29.71,9,4,16,0.00
2013-5-30,74,65,54,59,54,50,85,69,55,29.86,29.76,9,3,16,0.00
2013-5-31,73,66,58,59,56,52,86,73,58,29.91,29.82,9,3,17,0.00
2013-6-1,73,64,58,60,54,-100,89,75,61,29.85,29.75,9,-17,16,0.00
2013-6-2,68,63,60,60,58,56,89,82,73,29.83,29.77,9,3,15,0.00
2013-6-3,71,64,60,58,57,55,90,77,62,29.90,29.79,12,4,21,0.00
2013-6-4,71,64,58,58,56,52,84,75,62,29.97,29.89,9,4,17,0.00
2013-6-5,69,61,54,56,53,50,86,77,63,30.02,29.94,10,4,17,0.00
2013-6-6,68,62,58,57,55,53,86,79,64,29.96,29.89,8,3,17,0.00
2013-6-7,70,62,59,58,56,54,87,80,64,29.91,29.79,8,3,16,0.00
2013-6-8,66,62,60,57,56,56,86,81,72,29.91,29.79,10,4,18,0.00
2013-6-9,66,62,60,59,57,54,92,82,74,29.93,29.88,10,4,17,0.01
2013-6-10,73,66,62,58,55,52,84,68,49,29.96,29.89,11,4,18,0.00
2013-6-11,74,65,57,60,57,53,88,75,57,29.94,29.88,9,4,17,0.00
2013-6-12,70,63,60,58,57,56,89,81,64,30.03,29.93,9,3,19,0.00
2013-6-13,71,64,60,59,57,54,89,77,63,30.02,29.90,9,3,16,0.00
2013-6-14,72,64,54,59,56,50,88,77,61,29.92,29.85,10,4,21,0.00
2013-6-15,71,64,59,58,56,55,89,77,59,29.98,29.88,9,4,21,0.00
2013-6-16,71,64,58,58,56,54,87,75,60,30.04,29.95,9,3,17,0.00
2013-6-17,74,64,57,59,56,53,92,78,56,30.00,29.88,9,3,19,0.00
2013-6-18,72,65,56,58,55,52,87,71,57,29.94,29.83,10,4,18,0.00
2013-6-19,79,66,54,57,53,44,85,64,29,29.88,29.78,9,3,17,0.00
2013-6-20,76,66,53,60,53,48,82,65,46,29.86,29.80,11,4,21,0.00
2013-6-21,75,66,54,59,54,49,83,67,52,29.91,29.83,10,3,17,0.00
2013-6-22,74,65,56,59,55,50,83,72,55,29.92,29.83,11,4,20,0.00
2013-6-23,70,63,56,58,56,51,86,76,63,29.89,29.80,9,3,15,0.00
2013-6-24,72,65,57,60,57,52,87,76,59,29.94,29.83,11,4,22,0.00
2013-6-25,71,66,62,60,58,57,88,77,65,30.00,29.91,10,3,19,0.00
2013-6-26,77,69,60,62,60,57,90,74,55,29.99,29.91,9,3,15,0.00
2013-6-27,81,69,63,63,61,58,89,76,54,30.02,29.96,9,2,15,0.00
2013-6-28,82,70,62,64,60,58,92,74,51,29.98,29.88,8,4,14,0.00
2013-6-29,84,72,62,63,60,58,87,68,46,29.88,29.73,9,3,17,0.00
2013-6-30,85,72,64,64,61,58,88,70,41,29.82,29.71,14,4,25,0.00
2013-7-1,81,71,66,65,63,61,91,78,57,29.89,29.80,10,4,16,0.00
2013-7-2,72,66,63,63,62,61,93,87,72,30.00,29.88,10,3,18,0.00
2013-7-3,75,68,64,63,61,60,88,78,63,29.93,29.82,10,4,17,0.00
2013-7-4,74,67,63,62,60,59,90,80,62,29.85,29.76,9,4,16,0.00
2013-7-5,75,68,64,62,61,59,84,76,63,29.86,29.77,12,4,17,0.00
2013-7-6,73,66,63,63,60,58,86,81,69,29.84,29.76,9,3,15,0.00
2013-7-7,73,66,61,61,59,58,90,80,64,29.86,29.79,11,4,19,0.00
2013-7-8,74,66,60,61,59,56,90,78,62,29.94,29.86,9,3,16,0.00
2013-7-9,79,67,60,62,59,56,92,75,48,30.00,29.91,9,3,16,0.00
2013-7-10,77,67,61,62,60,57,89,78,60,29.97,29.90,7,2,14,0.00
2013-7-11,76,68,64,64,62,59,86,80,65,29.97,29.88,11,3,15,0.00
2013-7-12,73,66,61,63,60,58,92,83,65,29.94,29.88,8,3,16,0.00
2013-7-13,73,65,61,61,59,56,90,79,64,29.97,29.87,9,3,17,0.00
2013-7-14,75,66,58,61,58,54,88,74,54,29.94,29.82,8,3,14,0.00
2013-7-15,74,66,59,59,56,55,86,73,52,29.88,29.82,10,3,18,0.00
2013-7-16,75,64,54,59,55,50,91,74,50,29.98,29.87,9,3,19,0.00
2013-7-17,75,65,54,58,56,50,87,73,51,30.03,29.97,10,3,18,0.00
2013-7-18,74,64,57,60,56,54,89,76,57,29.99,29.87,9,3,15,0.00
2013-7-19,73,64,56,59,56,52,89,76,56,29.91,29.83,9,3,15,0.00
2013-7-20,73,65,58,61,58,54,88,79,65,29.88,29.78,9,3,16,0.00
2013-7-21,71,65,63,62,60,58,90,83,69,29.93,29.80,9,2,17,0.00
2013-7-22,75,67,62,62,60,58,91,79,61,29.99,29.91,9,4,16,0.02
2013-7-23,74,66,62,60,59,58,89,78,58,30.03,29.95,9,3,16,0.00
2013-7-24,70,64,60,60,58,57,90,82,69,29.99,29.91,9,3,16,0.00
2013-7-25,71,64,60,59,58,56,89,81,66,30.02,29.93,9,4,15,0.00
2013-7-26,72,64,60,60,58,56,88,79,61,30.10,30.00,8,3,15,0.00
2013-7-27,72,64,60,59,57,56,88,79,63,30.02,29.89,9,3,16,0.00
2013-7-28,67,62,59,59,57,55,88,82,74,29.93,29.88,8,3,17,0.00
2013-7-29,71,64,60,59,57,55,92,78,58,30.03,29.92,9,3,17,0.00
2013-7-30,71,63,58,57,56,54,86,77,61,30.14,30.03,8,3,17,0.00
2013-7-31,70,62,57,57,55,52,87,78,62,30.12,30.01,8,2,16,0.00
2013-8-1,71,64,59,57,56,55,85,76,60,30.03,29.91,8,3,16,0.00
2013-8-2,73,61,55,60,50,-100,87,74,61,29.97,29.91,8,-32,14,0.00
2013-8-3,71,64,60,59,57,56,88,79,64,30.00,29.94,8,3,18,0.00
2013-8-4,70,63,59,58,56,55,89,80,63,30.02,29.94,8,3,15,0.00
2013-8-5,71,63,58,58,56,55,92,80,57,30.01,29.92,8,3,14,0.00
2013-8-6,72,63,59,58,56,55,89,78,60,30.05,29.96,9,4,18,0.00
2013-8-7,70,63,58,58,56,54,88,78,61,30.08,29.98,9,3,17,0.00
2013-8-8,71,64,59,58,56,54,88,76,60,29.99,29.91,10,4,17,0.00
2013-8-9,71,64,60,58,56,55,85,76,60,29.96,29.90,11,4,19,0.00
2013-8-10,72,64,58,58,56,53,87,77,61,30.03,29.96,9,3,18,0.00
2013-8-11,72,64,60,59,57,56,87,79,62,30.00,29.90,10,3,16,0.00
2013-8-12,72,65,60,59,58,56,86,78,62,29.97,29.90,8,3,16,0.00
2013-8-13,72,64,60,60,58,56,89,80,63,29.98,29.88,8,3,14,0.00
2013-8-14,73,64,60,62,59,57,91,83,65,29.93,29.83,7,3,12,0.00
2013-8-15,74,65,60,62,60,58,92,83,65,29.94,29.88,8,3,16,0.00
2013-8-16,75,66,61,63,60,58,92,81,62,29.96,29.91,8,2,14,0.00
2013-8-17,72,65,61,60,59,58,92,81,64,29.96,29.82,9,3,17,0.00
2013-8-18,75,64,59,60,58,56,92,81,58,29.91,29.82,9,3,14,0.00
2013-8-19,74,65,60,62,59,57,90,82,62,29.96,29.86,8,3,16,0.00
2013-8-20,72,65,61,60,58,56,89,79,59,29.95,29.86,9,3,16,0.00
2013-8-21,73,65,57,59,57,54,87,75,56,29.94,29.85,9,3,16,0.00
2013-8-22,78,67,56,60,57,52,86,71,48,29.92,29.82,10,3,17,0.00
2013-8-23,75,66,56,61,56,51,88,73,53,29.86,29.75,9,3,15,0.00
2013-8-24,75,65,55,60,57,52,91,77,56,29.87,29.78,8,2,14,0.00
2013-8-25,75,65,58,61,58,56,93,79,57,29.92,29.84,8,2,13,0.00
2013-8-26,79,67,54,60,57,50,86,72,48,29.93,29.83,8,3,15,0.01
2013-8-27,77,68,63,62,59,58,87,76,55,29.85,29.78,9,3,15,0.00
2013-8-28,78,68,62,61,59,58,89,74,52,29.89,29.78,8,3,14,0.00
2013-8-29,82,68,61,62,56,-100,89,70,47,29.94,29.86,8,-18,15,0.00
2013-8-30,86,75,63,62,60,55,86,62,38,29.96,29.89,11,3,19,0.00
2013-8-31,88,78,71,66,63,60,79,62,41,29.96,29.88,9,3,19,0.00
2013-9-1,81,73,68,67,64,61,87,73,61,29.93,29.86,8,3,13,0.00
2013-9-2,80,71,66,66,64,61,87,77,61,29.92,29.80,8,3,14,0.00
2013-9-3,84,73,65,65,63,60,87,72,51,29.90,29.81,8,2,15,0.00
2013-9-4,80,71,65,63,61,60,85,72,54,29.92,29.84,10,3,16,0.00
2013-9-5,81,70,63,63,61,59,87,72,51,29.89,29.82,8,2,14,0.00
2013-9-6,83,70,62,62,60,58,87,72,46,29.87,29.79,9,2,14,0.00
2013-9-7,76,67,61,62,60,58,89,78,56,29.87,29.80,9,3,17,0.00
2013-9-8,72,65,60,61,58,57,91,81,62,29.86,29.76,9,3,15,0.00
2013-9-9,69,63,60,59,58,57,92,84,70,29.83,29.76,8,3,16,0.00
2013-9-10,72,66,60,59,57,56,88,76,61,29.93,29.81,12,3,19,0.00
2013-9-11,74,64,61,60,54,-100,85,74,59,30.00,29.93,8,-19,17,0.00
2013-9-12,78,66,57,60,58,53,88,74,52,29.94,29.83,9,3,15,0.00
2013-9-13,78,67,57,62,58,53,89,74,50,29.83,29.67,7,2,16,0.01
2013-9-14,78,68,59,61,58,54,86,72,51,29.72,29.65,8,2,15,0.00
2013-9-15,77,68,58,62,59,54,88,74,54,29.77,29.67,8,2,15,0.00
2013-9-16,75,65,59,61,58,54,89,78,60,29.83,29.75,9,2,16,0.00
2013-9-17,73,64,57,61,57,53,92,78,55,29.82,29.73,9,2,15,0.01
2013-9-18,74,64,56,60,57,53,89,78,58,29.82,29.74,9,3,17,0.00
2013-9-19,74,64,57,61,58,53,89,80,62,29.83,29.76,8,3,17,0.00
2013-9-20,70,65,63,61,59,58,86,80,70,29.89,29.81,7,3,12,0.00
2013-9-21,74,64,60,60,54,-100,85,75,55,29.92,29.79,13,-24,22,0.00
2013-9-22,76,64,55,57,54,43,89,73,32,29.85,29.76,9,2,16,0.01
2013-9-23,81,33,54,55,-23,-100,77,31,28,29.86,29.81,10,-481,12,0.00
2013-9-24,72,65,61,58,57,54,85,78,53,29.85,29.83,3,1,6,0.00
2013-9-25,73,63,54,58,54,49,85,73,49,29.84,29.68,9,3,17,0.00
2013-9-26,72,63,57,56,50,42,80,64,35,29.90,29.72,14,4,29,0.00
2013-9-27,81,66,50,49,36,25,78,40,15,29.99,29.89,12,4,22,0.00
2013-9-28,82,68,56,48,36,28,54,34,14,30.03,29.96,10,4,16,0.00
2013-9-29,78,65,52,57,44,32,81,49,23,30.06,29.97,9,3,15,0.00
2013-9-30,78,65,52,57,50,40,81,61,27,29.97,29.83,9,2,16,0.00
2013-10-1,75,64,54,59,55,49,85,74,58,29.93,29.86,9,2,18,0.00
2013-10-2,74,63,57,59,56,52,87,78,54,29.97,29.89,9,3,17,0.00
2013-10-3,70,63,57,58,56,53,89,77,62,29.93,29.82,8,3,16,0.00
2013-10-4,86,62,53,57,18,-100,89,37,8,30.03,29.87,20,-103,33,0.00
2013-10-5,90,78,63,45,24,16,38,15,7,30.12,30.02,16,6,35,0.00
2013-10-6,90,75,63,51,29,17,52,22,7,30.07,29.96,12,4,18,0.00
2013-10-7,74,64,54,57,47,25,86,57,27,29.97,29.91,10,3,15,0.00
2013-10-8,70,60,49,56,52,44,89,75,60,29.93,29.82,12,4,22,0.00
2013-10-9,64,59,50,53,49,44,81,70,51,29.82,29.69,14,6,24,0.00
2013-10-10,67,41,50,51,0,-100,80,43,52,30.02,29.79,13,-323,22,0.00
2013-10-11,69,59,49,54,50,44,86,74,54,30.05,29.96,8,3,15,0.00
2013-10-12,70,42,49,56,9,-100,88,57,57,29.97,29.90,7,-279,15,0.00
2013-10-13,69,60,52,55,52,49,89,77,55,30.02,29.94,8,3,14,0.00
2013-10-14,75,39,50,55,2,-100,88,51,48,30.02,29.92,7,-320,12,0.01
2013-10-15,86,68,56,52,34,-100,75,35,12,29.95,29.88,10,-18,18,0.00
2013-10-16,84,62,56,43,18,-100,50,24,10,30.06,29.95,12,-102,17,0.00
2013-10-17,78,64,52,56,40,28,84,47,17,30.03,29.93,8,2,13,0.00
2013-10-18,77,60,50,58,44,-100,84,63,34,30.00,29.94,9,-25,16,0.00
2013-10-19,75,46,50,56,10,-100,87,44,29,30.02,29.96,8,-250,14,0.00
2013-10-20,70,59,48,58,52,42,86,78,64,29.99,29.90,9,2,14,0.00
2013-10-21,67,39,54,56,3,-100,89,56,65,29.99,29.91,7,-332,14,0.00
2013-10-22,67,45,55,56,13,-100,89,57,64,30.01,29.91,7,-258,12,0.00
2013-10-23,66,58,56,55,48,-100,88,77,64,29.99,29.91,7,-32,13,0.00
2013-10-24,68,44,60,55,7,-100,80,50,58,30.05,29.95,8,-304,16,0.00
2013-10-25,68,57,54,56,47,-100,87,77,65,30.14,30.02,7,-39,13,0.00
2013-10-26,70,55,48,58,44,-100,92,77,58,30.09,29.97,6,-54,13,0.00
2013-10-27,67,52,47,57,36,-100,90,72,66,29.97,29.81,10,-101,18,0.01
2013-10-28,66,57,57,52,40,-100,79,63,38,29.92,29.78,11,-49,23,0.00
2013-10-29,66,58,49,52,48,44,86,72,52,29.98,29.93,9,3,19,0.00
2013-10-30,69,58,48,53,48,42,86,69,39,30.07,29.99,8,4,15,0.00
2013-10-31,73,59,48,55,44,35,85,60,27,30.08,30.00,8,4,13,0.00
2013-11-1,79,62,48,55,43,34,78,53,20,30.09,29.95,7,2,12,0.00
2013-11-2,79,64,54,57,43,31,87,52,19,29.97,29.88,8,3,17,0.00
2013-11-3,68,57,48,54,49,40,87,75,58,29.92,29.83,8,2,16,0.00
2013-11-4,69,60,52,54,51,46,85,73,56,29.94,29.79,9,2,17,0.00
2013-11-5,76,55,49,46,12,-100,82,29,10,30.16,29.95,9,-123,22,0.00
2013-11-6,82,65,50,48,27,12,58,28,8,30.19,30.11,8,3,19,0.00
2013-11-7,82,59,52,51,20,-100,67,29,13,30.11,29.99,12,-88,15,0.00
2013-11-8,72,58,49,57,41,-100,86,57,26,30.02,29.93,11,-12,18,0.00
2013-11-9,68,56,48,55,45,-100,88,71,53,30.07,29.98,9,-18,16,0.00
2013-11-10,79,58,47,54,47,30,86,71,17,30.10,30.03,10,3,19,0.01
2013-11-11,74,58,45,56,42,-100,87,63,27,30.13,30.04,7,-19,9,0.01
2013-11-12,75,60,52,56,50,40,87,69,28,30.16,30.07,8,2,10,0.00
2013-11-13,84,68,52,56,42,29,75,42,17,30.06,29.90,10,3,14,0.00
2013-11-14,80,66,54,56,46,30,89,54,20,29.92,29.75,9,3,11,0.00
2013-11-15,68,52,51,55,34,-100,92,69,57,29.76,29.68,9,-116,12,0.00
2013-11-16,66,58,51,54,51,47,86,77,62,29.93,29.73,11,3,15,0.00
2013-11-17,67,58,51,53,50,47,87,75,50,30.09,29.93,9,2,14,0.00
2013-11-18,66,60,52,53,51,48,86,74,59,30.16,30.06,7,4,11,0.00
2013-11-19,65,53,51,53,38,-100,87,71,59,30.09,29.95,6,-82,8,0.00
2013-11-20,66,59,53,57,53,48,92,80,59,29.97,29.86,9,3,11,0.19
2013-11-21,62,56,57,58,46,-100,93,78,57,29.88,29.82,8,-46,11,0.15
2013-11-22,62,50,55,42,21,-100,57,43,41,29.97,29.86,10,-115,22,0.00
2013-11-23,65,53,54,40,26,-100,58,43,34,30.09,29.96,10,-88,13,0.00
2013-11-24,69,56,50,48,36,-100,80,54,30,30.20,30.08,10,-38,11,0.00
2013-11-25,70,49,47,49,21,-100,78,51,31,30.24,30.15,9,-145,12,0.00
2013-11-26,70,58,47,53,43,-100,78,61,47,30.18,30.02,8,-12,8,0.00
2013-11-27,61,21,53,53,-47,-100,91,23,41,30.02,29.86,3,-628,5,0.00
2013-11-28,69,52,48,55,32,-100,92,65,33,30.03,29.88,14,-109,16,0.00
2013-11-29,68,35,53,52,-14,-100,81,39,45,30.18,30.03,12,-421,13,0.00
2013-11-30,72,59,50,52,43,38,77,58,30,30.18,30.08,8,3,12,0.00
2013-12-1,77,53,52,45,20,-100,61,38,19,30.22,30.10,10,-114,15,0.00
2013-12-2,73,58,50,51,34,-100,81,46,23,30.11,29.89,10,-24,12,0.00
2013-12-3,64,45,44,53,15,-100,75,52,56,29.89,29.72,14,-204,16,0.00
2013-12-4,60,46,39,41,19,-100,84,47,23,29.96,29.76,7,-84,10,0.00
2013-12-5,60,47,39,35,28,22,68,48,27,30.10,29.94,8,3,11,0.00
2013-12-6,59,47,38,39,32,24,79,57,42,30.18,30.10,10,4,12,0.00
2013-12-7,57,44,37,50,31,-100,91,68,37,30.12,29.97,15,-30,18,0.11
2013-12-8,54,42,35,34,23,-100,77,55,31,30.21,30.10,7,-31,9,0.01
2013-12-9,57,45,40,20,-5,-100,44,16,10,30.33,30.19,12,-101,19,0.00
2013-12-10,67,50,45,41,5,-100,65,21,9,30.28,30.10,10,-59,13,0.00
2013-12-11,72,49,44,25,-3,-100,28,16,10,30.16,30.10,7,-140,13,0.00
2013-12-12,66,50,47,49,16,-100,80,38,20,30.21,30.13,9,-117,12,0.00
2013-12-13,63,29,42,48,-23,-100,85,38,40,30.22,30.14,6,-458,9,0.00
2013-12-14,74,62,42,39,23,18,86,27,13,30.29,30.19,11,5,16,0.00
2013-12-15,81,64,51,39,25,17,45,24,9,30.26,30.08,8,4,12,0.00
2013-12-16,81,66,58,42,27,-100,52,25,13,30.13,30.03,7,-22,10,0.00
2013-12-17,79,66,59,52,37,23,69,37,20,30.11,29.97,7,2,10,0.00
2013-12-18,64,42,55,55,6,-100,87,52,38,29.98,29.85,9,-293,11,0.00
2013-12-19,58,51,45,49,37,-100,83,68,51,29.84,29.70,10,-45,18,0.00
2013-12-20,66,51,40,44,39,31,84,66,29,29.93,29.80,8,3,11,0.00
2013-12-21,62,51,41,50,40,30,86,68,55,30.09,29.91,9,3,14,0.00
2013-12-22,65,52,42,50,44,38,87,77,55,30.26,30.08,9,3,10,0.00
2013-12-23,75,56,44,52,40,-100,86,61,20,30.31,30.20,9,-4,15,0.00
2013-12-24,80,58,51,48,31,-100,66,42,16,30.20,30.08,7,-46,11,0.00
2013-12-25,78,72,68,30,22,12,24,16,9,30.21,30.11,10,4,20,0.00
2013-12-26,81,66,54,34,9,-100,39,13,6,30.17,30.06,8,-39,13,0.00
2013-12-27,80,62,51,44,24,13,57,26,9,30.14,30.02,8,3,10,0.00
2013-12-28,70,53,45,52,24,-100,81,43,20,30.02,29.92,8,-75,10,0.00
2013-12-29,75,56,42,39,13,-100,81,29,9,30.13,30.00,11,-52,21,0.00
2013-12-30,72,38,46,43,-17,-100,66,23,15,30.25,30.13,8,-360,12,0.00
2013-12-31,64,35,42,50,-7,-100,82,39,28,30.19,30.08,5,-292,5,0.00
2014-1-1,67,53,41,53,44,34,86,73,50,30.14,30.05,5,2,8,0.00
2014-1-2,75,57,48,44,24,-100,79,34,20,30.10,29.99,7,-67,9,0.00